• Join FlightAware (Why Join?)
  • Login
  • US Flag 
11:58AM EDT


 

Airport Tracker/Info


-or-


 

Live Flight TrackerFlight Track Log ✈ CSZ9721 ✈ 19-Feb-2014 ✈ ZGSZ / SZX - ZSJD / JDZ

Flight Track Log - Related Links

Times and Time Zones

All times are in EST time to prevent confusion due to time zone crossing. See the CSZ9721 flight status page for this flight to view local times or setup timezone preferences in your user account.

Time Position Orientation Groundspeed Altitude Reporting Facility
EST Latitude Longitude Course Direction KTS MPH feet Rate Location/Type
06:10AM 23.2512 114.1030 24° Northeast  Level Estimated
06:11AM 23.3531 114.1517 24° Northeast  Level Estimated
06:12AM 23.4550 114.2004 24° Northeast  Level Estimated
06:13AM 23.5569 114.2493 24° Northeast  Level Estimated
06:14AM 23.6587 114.2982 24° Northeast  Level Estimated
06:15AM 23.7605 114.3472 24° Northeast  Level Estimated
06:16AM 23.8624 114.3962 24° Northeast  Level Estimated
06:17AM 23.9642 114.4454 24° Northeast  Level Estimated
06:18AM 24.0660 114.4946 24° Northeast  Level Estimated
06:19AM 24.1677 114.5439 24° Northeast  Level Estimated
06:20AM 24.2695 114.5933 24° Northeast  Level Estimated
06:21AM 24.3713 114.6428 24° Northeast  Level Estimated
06:22AM 24.4730 114.6923 24° Northeast  Level Estimated
06:23AM 24.5747 114.7419 24° Northeast  Level Estimated
06:24AM 24.6764 114.7916 24° Northeast  Level Estimated
06:25AM 24.7781 114.8414 24° Northeast  Level Estimated
06:26AM 24.8797 114.8913 24° Northeast  Level Estimated
06:27AM 24.9814 114.9412 24° Northeast  Level Estimated
06:28AM 25.0830 114.9912 24° Northeast  Level Estimated
06:29AM 25.1846 115.0413 24° Northeast  Level Estimated
06:30AM 25.2862 115.0915 24° Northeast  Level Estimated
06:31AM 25.3878 115.1418 24° Northeast  Level Estimated
06:32AM 25.4894 115.1921 24° Northeast  Level Estimated
06:33AM 25.5909 115.2426 24° Northeast  Level Estimated
06:34AM 25.6924 115.2931 24° Northeast  Level Estimated
06:35AM 25.7940 115.3437 24° Northeast  Level Estimated
06:36AM 25.8955 115.3944 24° Northeast  Level Estimated
06:37AM 25.9969 115.4452 24° Northeast  Level Estimated
06:38AM 26.0984 115.4961 24° Northeast  Level Estimated
06:39AM 26.1998 115.5471 24° Northeast  Level Estimated
06:40AM 26.3013 115.5981 24° Northeast  Level Estimated
06:41AM 26.4027 115.6493 24° Northeast  Level Estimated
06:42AM 26.5040 115.7005 24° Northeast  Level Estimated
06:43AM 26.6054 115.7518 24° Northeast  Level Estimated
06:44AM 26.7068 115.8033 24° Northeast  Level Estimated
06:45AM 26.8081 115.8548 24° Northeast  Level Estimated
06:46AM 26.9094 115.9064 24° Northeast  Level Estimated
06:47AM 27.0107 115.9581 24° Northeast  Level Estimated
06:48AM 27.1120 116.0098 24° Northeast  Level Estimated
06:49AM 27.2132 116.0617 24° Northeast  Level Estimated
06:50AM 27.3145 116.1137 25° Northeast  Level Estimated
06:51AM 27.4157 116.1658 25° Northeast  Level Estimated
06:52AM 27.5169 116.2179 25° Northeast  Level Estimated
06:53AM 27.6181 116.2702 25° Northeast  Level Estimated
06:54AM 27.7192 116.3225 25° Northeast  Level Estimated
06:55AM 27.8204 116.3750 25° Northeast  Level Estimated
06:56AM 27.9215 116.4276 25° Northeast  Level Estimated
06:57AM 28.0226 116.4802 25° Northeast  Level Estimated
06:58AM 28.1237 116.5330 25° Northeast  Level Estimated
06:59AM 28.2247 116.5858 25° Northeast  Level Estimated
07:00AM 28.3258 116.6387 25° Northeast  Level Estimated
07:01AM 28.4268 116.6918 25° Northeast  Level Estimated
07:02AM 28.5278 116.7449 25° Northeast  Level Estimated
07:03AM 28.6288 116.7982 25° Northeast  Level Estimated
07:04AM 28.7297 116.8516 25° Northeast  Level Estimated
07:05AM 28.8307 116.9050 25° Northeast  Level Estimated
07:06AM 28.9316 116.9586 25° Northeast  Level Estimated
07:07AM 29.0324 117.0123 25° Northeast  Level Estimated
07:08AM 29.1333 117.0660 25° Northeast  Level Estimated
07:09AM 29.2342 117.1199 25° Northeast  Level Estimated
07:10AM 29.3350 117.1739 25° Northeast  Level Estimated
07:11AM 29.3386 117.1758 25° Northeast  Level Estimated
07:12AM 29.3386 117.1758 69° East  Level Estimated
07:13AM 29.3386 117.1758 69° East  Level Estimated
07:14AM 29.3386 117.1758 69° East  Level Estimated
07:15AM 29.3386 117.1758 69° East  Level Estimated
07:16AM 29.3386 117.1758 69° East  Level Estimated
07:17AM 29.3386 117.1758 69° East  Level Estimated
07:18AM 29.3386 117.1758 69° East  Level Estimated
07:19AM 29.3386 117.1758 69° East  Level Estimated
07:20AM 29.3386 117.1758 69° East  Level Estimated
07:21AM 29.3386 117.1758 69° East  Level Estimated
07:22AM 29.3386 117.1758 69° East  Level Estimated
07:23AM 29.3386 117.1758 69° East  Level Estimated
07:24AM 29.3386 117.1758 69° East  Level Estimated
07:25AM 29.3386 117.1758 69° East  Level Estimated
07:26AM 29.3386 117.1758 69° East  Level Estimated